METAR (acronimo di METeorological Air Report) è un messaggio meteo emesso nella maggior parte dei casi in ambito aeroportuale

GMME - Rabat, Morocco
Ultimo Aggiornamento: Venerdì 18 Ottobre 2019 15:30 CEST
Parzialmente Nuvoloso
Parzialmente Nuvoloso
 Wind from Nord-Nord-Ovest
Vento: Nord-Nord-Ovest 26 km/h
Temperatura: 23°C
Punto di Rugiada: 14°C
Umidità: 57%
Barometro: 1018 hPa
Nuvole: Parzialmente Nuvoloso
Visibilità: 8 km
2019/10/18 13:30 GMME 181330Z 34014KT 8000 NSC 23/14 Q1018 NOSIG
DTTA - Tunis-Carthage International Airport, Tunisia
Ultimo Aggiornamento: Venerdì 18 Ottobre 2019 15:30 CEST
Qualche Nuvola
Qualche Nuvola
 Wind from Nord-Nord-Est
Vento: Nord-Nord-Est 11 km/h
Temperatura: 27°C
Heat Index: 27°C
Punto di Rugiada: 13°C
Umidità: 42%
Barometro: 1016 hPa
Nuvole: Qualche Nuvola
Visibilità: 10 km
Nuvole nel Dettaglio: Qualche Nuvola 792 m
2019/10/18 13:30 DTTA 181330Z 03006KT 360V060 9999 FEW026 27/13 Q1016
HSSS - Khartoum, Sudan
Ultimo Aggiornamento: Venerdì 18 Ottobre 2019 15:00 CEST
Foschia
Foschia
 Wind from Sud-Sud-Est
Vento: Sud-Sud-Est 7 km/h
Temperatura: 35°C
Punto di Rugiada: 18°C
Umidità: 36%
Barometro: 1008 hPa
Condizioni: Foschia
Visibilità: 3 km
2019/10/18 13:00 HSSS 181300Z 16004KT 3000 HZ 35/18 Q1008 NOSIG
 
DAAG - Algiers Houari Boumediene Airport, Algeria
Ultimo Aggiornamento: Venerdì 18 Ottobre 2019 15:30 CEST
Parzialmente Nuvoloso
Parzialmente Nuvoloso
 Wind from Nord-Nord-Est
Vento: Nord-Nord-Est 17 km/h
Temperatura: 26°C
Punto di Rugiada: 14°C
Umidità: 48%
Barometro: 1017 hPa
Nuvole: Parzialmente Nuvoloso
Visibilità: 10 km
Nuvole nel Dettaglio: Qualche Nuvola 792 m
Parzialmente Nuvoloso 6096 m
2019/10/18 13:30 DAAG 181330Z 03009KT 360V070 9999 FEW026 SCT200 26/14 Q1017
HECA - Cairo International Airport, Egypt
Ultimo Aggiornamento: Venerdì 18 Ottobre 2019 15:30 CEST
Sereno
Sereno
 Wind from Nord
Vento: Nord 19 km/h
Temperatura: 31°C
Punto di Rugiada: 14°C
Umidità: 35%
Barometro: 1015 hPa
Condizioni: Sereno
Visibilità: superiore a 10 km
2019/10/18 13:30 HECA 181330Z 01010KT CAVOK 31/14 Q1015 NOSIG
FTTJ - N’Djamena, Chad
Ultimo Aggiornamento: Venerdì 18 Ottobre 2019 14:00 CEST
Dati non Recenti
Qualche Nuvola
Qualche Nuvola
 Wind from Sud-Sud-Ovest
Vento: Sud-Sud-Ovest 13 km/h
Temperatura: 32°C
Heat Index: 38°C
Punto di Rugiada: 24°C
Umidità: 63%
Barometro: 1010 hPa
Nuvole: Qualche Nuvola
Visibilità: 10 km
Nuvole nel Dettaglio: Parzialmente Nuvoloso 1006 m
Qualche Nuvola 1402 m
2019/10/18 12:00 FTTJ 181200Z 21007KT 210V290 9999 SCT033 FEW046CB 32/24 Q1010 NOSIG
 
FEFF - Bangui, Central African Republic
Ultimo Aggiornamento: Venerdì 18 Ottobre 2019 15:00 CEST
Qualche Nuvola
Qualche Nuvola
 Wind from Ovest
Vento: Ovest 6 km/h
Temperatura: 30°C
Heat Index: 33°C
Punto di Rugiada: 21°C
Umidità: 59%
Barometro: 1008 hPa
Nuvole: Qualche Nuvola
Visibilità: 10 km
Nuvole nel Dettaglio: Prevalentemente Nuvoloso 701 m
Qualche Nuvola 1219 m
2019/10/18 13:00 FEFF 181300Z 27003KT 9999 BKN023 FEW040CB 30/21 Q1008 NOSIG
HBBA - Bujumbura, Burundi
Ultimo Aggiornamento: Venerdì 18 Ottobre 2019 11:00 CEST
Dati non Recenti
Prevalentemente Nuvoloso
Prevalentemente Nuvoloso
 Wind from Sud
Vento: Sud 48 km/h
Temperatura: 24°C
Punto di Rugiada: 21°C
Umidità: 83%
Barometro: 1016 hPa
Nuvole: Prevalentemente Nuvoloso
Visibilità: 10 km
Nuvole nel Dettaglio: Parzialmente Nuvoloso 610 m
Qualche Nuvola 762 m
Prevalentemente Nuvoloso 2743 m
2019/10/18 09:00 HBBA 180900Z 18026KT 9999 SCT020 FEW025CB BKN090 24/21 Q1016
FMEE - Saint-Denis, Reunion
Ultimo Aggiornamento: Venerdì 18 Ottobre 2019 15:30 CEST
Nuvoloso
Nuvoloso
 Wind from Est-Sud-Est
Vento: Est-Sud-Est 33 km/h
Temperatura: 24°C
Punto di Rugiada: 14°C
Umidità: 54%
Barometro: 1018 hPa
Nuvole: Nuvoloso
Visibilità: 10 km
Nuvole nel Dettaglio: Nuvoloso 1829 m
2019/10/18 13:30 FMEE 181330Z AUTO 11018KT 9999 OVC060 24/14 Q1018 BECMG 15008KT
 
DIAP - Abidjan, Ivory coast
Ultimo Aggiornamento: Venerdì 18 Ottobre 2019 15:30 CEST
Parzialmente Nuvoloso
Parzialmente Nuvoloso
 Wind from Sud-Ovest
Vento: Sud-Ovest 28 km/h
Temperatura: 29°C
Heat Index: 34°C
Punto di Rugiada: 25°C
Umidità: 79%
Barometro: 1011 hPa
Nuvole: Parzialmente Nuvoloso
Visibilità: 10 km
Nuvole nel Dettaglio: Parzialmente Nuvoloso 366 m
2019/10/18 13:30 DIAP 181330Z 23015KT 9999 SCT012 29/25 Q1011 NOSIG
GUCY - Conakry, Guinea
Ultimo Aggiornamento: Venerdì 18 Ottobre 2019 12:00 CEST
Dati non Recenti
Parzialmente Nuvoloso
Parzialmente Nuvoloso
 Wind from calm
Vento: Calma
Temperatura: 29°C
Heat Index: 34°C
Punto di Rugiada: 25°C
Umidità: 79%
Barometro: 1014 hPa
Nuvole: Parzialmente Nuvoloso
Visibilità: 10 km
Nuvole nel Dettaglio: Prevalentemente Nuvoloso 457 m
Parzialmente Nuvoloso 3353 m
2019/10/18 10:00 GUCY 181000Z 00000KT 9999 BKN015 SCT110 29/25 Q1014
GABS - Bamako, Mali
Ultimo Aggiornamento: Venerdì 18 Ottobre 2019 15:30 CEST
Qualche Nuvola
Qualche Nuvola
 Wind from varies
Vento: variabile 6 km/h
Temperatura: 36°C
Heat Index: 42°C
Punto di Rugiada: 23°C
Umidità: 47%
Barometro: 1013 hPa
Nuvole: Qualche Nuvola
Visibilità: 10 km
Nuvole nel Dettaglio: Qualche Nuvola 610 m
2019/10/18 13:30 GABS 181330Z VRB03KT 9999 FEW020 36/23 Q1013 NOSIG
 
DRRN - Niamey, Niger
Ultimo Aggiornamento: Venerdì 18 Ottobre 2019 15:00 CEST
Parzialmente Nuvoloso
Parzialmente Nuvoloso
 Wind from varies
Vento: variabile 9 km/h
Temperatura: 40°C
Punto di Rugiada: 12°C
Umidità: 19%
Barometro: 1009 hPa
Nuvole: Parzialmente Nuvoloso
Visibilità: 10 km
Nuvole nel Dettaglio: Parzialmente Nuvoloso 610 m
2019/10/18 13:00 DRRN 181300Z VRB05KT 9999 SCT020 40/12 Q1009 NOSIG
DFFD - Ouagadougou, Burkina Faso
Ultimo Aggiornamento: Venerdì 18 Ottobre 2019 15:00 CEST
Qualche Nuvola
Qualche Nuvola
 Wind from Ovest-Nord-Ovest
Vento: Ovest-Nord-Ovest 9 km/h
Temperatura: 35°C
Heat Index: 39°C
Punto di Rugiada: 22°C
Umidità: 47%
Barometro: 1010 hPa
Nuvole: Qualche Nuvola
Visibilità: 10 km
Nuvole nel Dettaglio: Qualche Nuvola 610 m
2019/10/18 13:00 DFFD 181300Z 30005KT 210V350 9999 FEW020 35/22 Q1010 NOSIG
DNMM - Lagos, Nigeria
Ultimo Aggiornamento: Venerdì 18 Ottobre 2019 15:00 CEST
Temporale, Foschia, Qualche Nuvola
Temporale, Foschia, Qualche Nuvola
 Wind from Sud-Ovest
Vento: Sud-Ovest 11 km/h
Temperatura: 28°C
Heat Index: 32°C
Punto di Rugiada: 25°C
Umidità: 84%
Barometro: 1012 hPa
Condizioni: Temporale, Foschia
Nuvole: Qualche Nuvola
Visibilità: 3 km
Nuvole nel Dettaglio: Prevalentemente Nuvoloso 366 m
Qualche Nuvola 610 m
2019/10/18 13:00 DNMM 181300Z 22006KT 2500 TS HZ BKN012 FEW020CB 28/25 Q1012 NOSIG
 
HKJK - Nairobi Jomo Kenyatta International Airport, Kenya
Ultimo Aggiornamento: Venerdì 18 Ottobre 2019 15:30 CEST
Prevalentemente Nuvoloso
Prevalentemente Nuvoloso
 Wind from Sud-Sud-Est
Vento: Sud-Sud-Est 19 km/h
Temperatura: 21°C
Punto di Rugiada: 16°C
Umidità: 73%
Barometro: 1018 hPa
Nuvole: Prevalentemente Nuvoloso
Visibilità: 10 km
Nuvole nel Dettaglio: Prevalentemente Nuvoloso 610 m
2019/10/18 13:30 HKJK 181330Z 15010KT 9999 BKN020 21/16 Q1018 NOSIG
FZAA - Kinshasa, Congo
Ultimo Aggiornamento: Venerdì 18 Ottobre 2019 15:00 CEST
Prevalentemente Nuvoloso
Prevalentemente Nuvoloso
 Wind from Sud-Ovest
Vento: Sud-Ovest 19 km/h
Temperatura: 29°C
Heat Index: 32°C
Punto di Rugiada: 22°C
Umidità: 66%
Barometro: 1011 hPa
Nuvole: Prevalentemente Nuvoloso
Visibilità: 9 km
Nuvole nel Dettaglio: Parzialmente Nuvoloso 610 m
Qualche Nuvola 914 m
Prevalentemente Nuvoloso 3048 m
2019/10/18 13:00 FZAA 181300Z 22010KT 9000 SCT020 FEW030TCU BKN100 29/22 Q1011 NOSIG
FLKK - Lusaka, Zambia
Ultimo Aggiornamento: Venerdì 18 Ottobre 2019 05:00 CEST
Dati non Recenti
Sereno
Sereno
 Wind from Sud-Est
Vento: Sud-Est 7 km/h
Temperatura: 15°C
Punto di Rugiada: 6°C
Umidità: 55%
Barometro: 1021 hPa
Condizioni: Sereno
Visibilità: superiore a 10 km
2019/10/18 03:00 FLKK 180300Z 14004KT CAVOK 15/06 Q1021
 
FAOR - Johannesburg, South Africa
Ultimo Aggiornamento: Venerdì 18 Ottobre 2019 15:30 CEST
Sereno
Sereno
 Wind from Ovest-Sud-Ovest
Vento: Ovest-Sud-Ovest 7 km/h
Temperatura: 30°C
Punto di Rugiada: 1°C
Umidità: 15%
Barometro: 1021 hPa
Condizioni: Sereno
Visibilità: superiore a 10 km
2019/10/18 13:30 FAOR 181330Z 24004KT 180V300 CAVOK 30/01 Q1021 NOSIG RMK CB TO N/E
FACT - Cape Town, South Africa
Ultimo Aggiornamento: Venerdì 18 Ottobre 2019 15:00 CEST
Sereno
Sereno
 Wind from Sud
Vento: Sud 26 km/h
Temperatura: 23°C
Punto di Rugiada: 15°C
Umidità: 61%
Barometro: 1013 hPa
Condizioni: Sereno
Visibilità: superiore a 10 km
2019/10/18 13:00 FACT 181300Z 18014KT CAVOK 23/15 Q1013 NOSIG
FIMP - Mauritius Sir Seewoosagur Ramgoolam International Airport, Mauritius
Ultimo Aggiornamento: Venerdì 18 Ottobre 2019 15:00 CEST
Prevalentemente Nuvoloso
Prevalentemente Nuvoloso
 Wind from Est-Sud-Est
Vento: Est-Sud-Est 20 km/h
Temperatura: 24°C
Punto di Rugiada: 15°C
Umidità: 57%
Barometro: 1019 hPa
Nuvole: Prevalentemente Nuvoloso
Visibilità: 10 km
Nuvole nel Dettaglio: Qualche Nuvola 579 m
Prevalentemente Nuvoloso 1524 m
2019/10/18 13:00 FIMP 181300Z 11011KT 9999 FEW019 BKN050 24/15 Q1019